sensor_id;sensor_type;location;lat;lon;timestamp;P1;durP1;ratioP1;P2;durP2;ratioP2
19024;SDS011;9645;51.448;6.260;2022-09-13T00:00:47;11.70;;;7.30;;
19024;SDS011;9645;51.448;6.260;2022-09-13T00:03:16;11.87;;;6.73;;
19024;SDS011;9645;51.448;6.260;2022-09-13T00:05:44;13.87;;;7.63;;
19024;SDS011;9645;51.448;6.260;2022-09-13T00:08:15;11.27;;;6.67;;
19024;SDS011;9645;51.448;6.260;2022-09-13T00:10:43;10.70;;;7.57;;
19024;SDS011;9645;51.448;6.260;2022-09-13T00:13:11;13.60;;;7.30;;
19024;SDS011;9645;51.448;6.260;2022-09-13T00:15:41;15.93;;;8.23;;
19024;SDS011;9645;51.448;6.260;2022-09-13T00:18:09;10.37;;;7.10;;
19024;SDS011;9645;51.448;6.260;2022-09-13T00:20:36;11.13;;;7.53;;
19024;SDS011;9645;51.448;6.260;2022-09-13T00:23:03;13.20;;;7.20;;
19024;SDS011;9645;51.448;6.260;2022-09-13T00:25:32;13.07;;;7.20;;
19024;SDS011;9645;51.448;6.260;2022-09-13T00:28:00;18.17;;;7.70;;
19024;SDS011;9645;51.448;6.260;2022-09-13T00:30:27;13.07;;;8.30;;
19024;SDS011;9645;51.448;6.260;2022-09-13T00:32:54;11.27;;;7.30;;
19024;SDS011;9645;51.448;6.260;2022-09-13T00:35:21;9.90;;;6.97;;
19024;SDS011;9645;51.448;6.260;2022-09-13T00:37:48;14.73;;;7.23;;
19024;SDS011;9645;51.448;6.260;2022-09-13T00:40:16;11.60;;;7.30;;
19024;SDS011;9645;51.448;6.260;2022-09-13T00:42:44;9.70;;;7.27;;
19024;SDS011;9645;51.448;6.260;2022-09-13T00:45:13;16.33;;;6.80;;
19024;SDS011;9645;51.448;6.260;2022-09-13T00:47:42;14.53;;;8.07;;
19024;SDS011;9645;51.448;6.260;2022-09-13T00:50:16;12.57;;;7.23;;
19024;SDS011;9645;51.448;6.260;2022-09-13T00:52:46;13.17;;;6.77;;
19024;SDS011;9645;51.448;6.260;2022-09-13T00:55:17;13.27;;;7.33;;
19024;SDS011;9645;51.448;6.260;2022-09-13T00:57:50;11.87;;;7.13;;
19024;SDS011;9645;51.448;6.260;2022-09-13T01:00:19;12.33;;;6.03;;
19024;SDS011;9645;51.448;6.260;2022-09-13T01:02:47;12.50;;;7.20;;
19024;SDS011;9645;51.448;6.260;2022-09-13T01:05:18;15.23;;;7.37;;
19024;SDS011;9645;51.448;6.260;2022-09-13T01:07:49;11.20;;;7.57;;
19024;SDS011;9645;51.448;6.260;2022-09-13T01:10:16;10.00;;;6.87;;
19024;SDS011;9645;51.448;6.260;2022-09-13T01:12:44;13.23;;;6.57;;
19024;SDS011;9645;51.448;6.260;2022-09-13T01:15:18;11.77;;;6.90;;
19024;SDS011;9645;51.448;6.260;2022-09-13T01:17:45;20.77;;;6.87;;
19024;SDS011;9645;51.448;6.260;2022-09-13T01:20:14;11.70;;;6.60;;
19024;SDS011;9645;51.448;6.260;2022-09-13T01:22:50;11.67;;;7.20;;
19024;SDS011;9645;51.448;6.260;2022-09-13T01:28:44;16.47;;;7.00;;
19024;SDS011;9645;51.448;6.260;2022-09-13T01:31:41;14.37;;;7.20;;
19024;SDS011;9645;51.448;6.260;2022-09-13T01:34:17;11.30;;;6.80;;
19024;SDS011;9645;51.448;6.260;2022-09-13T01:36:56;12.30;;;7.53;;
19024;SDS011;9645;51.448;6.260;2022-09-13T01:39:37;14.30;;;6.60;;
19024;SDS011;9645;51.448;6.260;2022-09-13T01:42:19;11.67;;;6.70;;
19024;SDS011;9645;51.448;6.260;2022-09-13T01:44:58;11.87;;;7.17;;
19024;SDS011;9645;51.448;6.260;2022-09-13T01:47:40;11.00;;;6.90;;
19024;SDS011;9645;51.448;6.260;2022-09-13T01:50:15;12.13;;;7.20;;
19024;SDS011;9645;51.448;6.260;2022-09-13T01:52:49;13.77;;;6.73;;
19024;SDS011;9645;51.448;6.260;2022-09-13T01:55:24;14.13;;;6.30;;
19024;SDS011;9645;51.448;6.260;2022-09-13T01:58:00;10.93;;;7.17;;
19024;SDS011;9645;51.448;6.260;2022-09-13T02:00:34;9.27;;;6.60;;
19024;SDS011;9645;51.448;6.260;2022-09-13T02:03:08;15.00;;;7.53;;
19024;SDS011;9645;51.448;6.260;2022-09-13T02:05:39;11.43;;;6.53;;
19024;SDS011;9645;51.448;6.260;2022-09-13T02:08:10;9.37;;;6.53;;
19024;SDS011;9645;51.448;6.260;2022-09-13T02:10:42;21.17;;;7.57;;
19024;SDS011;9645;51.448;6.260;2022-09-13T02:13:12;10.73;;;5.97;;
19024;SDS011;9645;51.448;6.260;2022-09-13T02:15:45;7.37;;;6.10;;
19024;SDS011;9645;51.448;6.260;2022-09-13T02:18:16;11.87;;;6.23;;
19024;SDS011;9645;51.448;6.260;2022-09-13T02:20:47;8.90;;;6.47;;
19024;SDS011;9645;51.448;6.260;2022-09-13T02:23:18;12.00;;;6.20;;
19024;SDS011;9645;51.448;6.260;2022-09-13T02:25:51;8.90;;;6.30;;
19024;SDS011;9645;51.448;6.260;2022-09-13T02:28:22;12.93;;;6.40;;
19024;SDS011;9645;51.448;6.260;2022-09-13T02:30:57;8.87;;;5.70;;
19024;SDS011;9645;51.448;6.260;2022-09-13T02:33:29;9.37;;;6.20;;
19024;SDS011;9645;51.448;6.260;2022-09-13T02:35:59;13.37;;;6.07;;
19024;SDS011;9645;51.448;6.260;2022-09-13T02:38:30;12.37;;;6.30;;
19024;SDS011;9645;51.448;6.260;2022-09-13T02:41:04;9.23;;;6.60;;
19024;SDS011;9645;51.448;6.260;2022-09-13T02:43:36;12.80;;;6.47;;
19024;SDS011;9645;51.448;6.260;2022-09-13T02:46:10;16.13;;;6.60;;
19024;SDS011;9645;51.448;6.260;2022-09-13T02:48:48;10.57;;;5.93;;
19024;SDS011;9645;51.448;6.260;2022-09-13T02:51:24;8.57;;;5.43;;
19024;SDS011;9645;51.448;6.260;2022-09-13T02:54:01;12.40;;;6.27;;
19024;SDS011;9645;51.448;6.260;2022-09-13T02:56:40;10.27;;;5.97;;
19024;SDS011;9645;51.448;6.260;2022-09-13T02:59:13;10.07;;;6.57;;
19024;SDS011;9645;51.448;6.260;2022-09-13T03:01:44;11.30;;;5.50;;
19024;SDS011;9645;51.448;6.260;2022-09-13T03:04:15;13.53;;;7.23;;
19024;SDS011;9645;51.448;6.260;2022-09-13T03:06:42;11.93;;;6.70;;
19024;SDS011;9645;51.448;6.260;2022-09-13T03:09:09;10.40;;;6.30;;
19024;SDS011;9645;51.448;6.260;2022-09-13T03:11:40;9.67;;;6.20;;
19024;SDS011;9645;51.448;6.260;2022-09-13T03:14:38;11.53;;;6.30;;
19024;SDS011;9645;51.448;6.260;2022-09-13T03:17:18;12.67;;;6.43;;
19024;SDS011;9645;51.448;6.260;2022-09-13T03:20:06;12.50;;;6.07;;
19024;SDS011;9645;51.448;6.260;2022-09-13T03:22:45;10.60;;;6.70;;
19024;SDS011;9645;51.448;6.260;2022-09-13T03:25:26;18.90;;;6.57;;
19024;SDS011;9645;51.448;6.260;2022-09-13T03:28:07;10.27;;;6.27;;
19024;SDS011;9645;51.448;6.260;2022-09-13T03:30:46;10.40;;;5.63;;
19024;SDS011;9645;51.448;6.260;2022-09-13T03:33:19;8.10;;;5.63;;
19024;SDS011;9645;51.448;6.260;2022-09-13T03:35:56;14.00;;;5.50;;
19024;SDS011;9645;51.448;6.260;2022-09-13T03:38:31;10.00;;;5.70;;
19024;SDS011;9645;51.448;6.260;2022-09-13T03:41:04;8.40;;;5.60;;
19024;SDS011;9645;51.448;6.260;2022-09-13T03:43:35;9.73;;;5.60;;
19024;SDS011;9645;51.448;6.260;2022-09-13T03:46:06;11.27;;;5.73;;
19024;SDS011;9645;51.448;6.260;2022-09-13T03:48:37;13.03;;;6.43;;
19024;SDS011;9645;51.448;6.260;2022-09-13T03:51:08;10.00;;;6.20;;
19024;SDS011;9645;51.448;6.260;2022-09-13T03:53:36;11.03;;;5.50;;
19024;SDS011;9645;51.448;6.260;2022-09-13T03:56:11;10.73;;;5.80;;
19024;SDS011;9645;51.448;6.260;2022-09-13T03:58:38;10.20;;;6.10;;
19024;SDS011;9645;51.448;6.260;2022-09-13T04:01:05;10.50;;;5.70;;
19024;SDS011;9645;51.448;6.260;2022-09-13T04:03:34;10.87;;;6.60;;
19024;SDS011;9645;51.448;6.260;2022-09-13T04:06:01;16.10;;;6.10;;
19024;SDS011;9645;51.448;6.260;2022-09-13T04:08:30;8.83;;;6.00;;
19024;SDS011;9645;51.448;6.260;2022-09-13T04:10:57;13.17;;;6.27;;
19024;SDS011;9645;51.448;6.260;2022-09-13T04:13:25;12.33;;;6.70;;
19024;SDS011;9645;51.448;6.260;2022-09-13T04:15:52;18.10;;;6.07;;
19024;SDS011;9645;51.448;6.260;2022-09-13T04:18:19;13.23;;;6.40;;
19024;SDS011;9645;51.448;6.260;2022-09-13T04:20:52;7.63;;;5.53;;
19024;SDS011;9645;51.448;6.260;2022-09-13T04:23:19;16.20;;;5.00;;
19024;SDS011;9645;51.448;6.260;2022-09-13T04:25:48;10.67;;;6.50;;
19024;SDS011;9645;51.448;6.260;2022-09-13T04:28:16;10.63;;;5.83;;
19024;SDS011;9645;51.448;6.260;2022-09-13T04:30:44;7.53;;;5.50;;
19024;SDS011;9645;51.448;6.260;2022-09-13T04:33:11;7.77;;;5.70;;
19024;SDS011;9645;51.448;6.260;2022-09-13T04:35:39;21.60;;;6.10;;
19024;SDS011;9645;51.448;6.260;2022-09-13T04:38:06;9.10;;;5.40;;
19024;SDS011;9645;51.448;6.260;2022-09-13T04:40:33;10.23;;;5.83;;
19024;SDS011;9645;51.448;6.260;2022-09-13T04:43:02;10.50;;;5.87;;
19024;SDS011;9645;51.448;6.260;2022-09-13T04:45:30;11.83;;;5.43;;
19024;SDS011;9645;51.448;6.260;2022-09-13T04:47:57;11.87;;;6.50;;
19024;SDS011;9645;51.448;6.260;2022-09-13T04:50:24;6.57;;;5.03;;
19024;SDS011;9645;51.448;6.260;2022-09-13T04:52:53;11.80;;;6.43;;
19024;SDS011;9645;51.448;6.260;2022-09-13T04:55:20;10.67;;;6.27;;
19024;SDS011;9645;51.448;6.260;2022-09-13T04:57:51;12.90;;;6.33;;
19024;SDS011;9645;51.448;6.260;2022-09-13T05:00:21;11.50;;;6.10;;
19024;SDS011;9645;51.448;6.260;2022-09-13T05:02:53;11.90;;;6.80;;
19024;SDS011;9645;51.448;6.260;2022-09-13T05:05:20;8.87;;;5.90;;
19024;SDS011;9645;51.448;6.260;2022-09-13T05:07:48;9.83;;;6.03;;
19024;SDS011;9645;51.448;6.260;2022-09-13T05:10:15;11.70;;;5.93;;
19024;SDS011;9645;51.448;6.260;2022-09-13T05:12:43;8.77;;;6.27;;
19024;SDS011;9645;51.448;6.260;2022-09-13T05:15:10;20.43;;;6.63;;
19024;SDS011;9645;51.448;6.260;2022-09-13T05:17:38;9.67;;;6.20;;
19024;SDS011;9645;51.448;6.260;2022-09-13T05:20:06;17.33;;;6.67;;
19024;SDS011;9645;51.448;6.260;2022-09-13T05:22:33;8.20;;;5.83;;
19024;SDS011;9645;51.448;6.260;2022-09-13T05:25:01;8.07;;;5.83;;
19024;SDS011;9645;51.448;6.260;2022-09-13T05:27:28;13.47;;;6.43;;
19024;SDS011;9645;51.448;6.260;2022-09-13T05:29:54;15.77;;;5.83;;
19024;SDS011;9645;51.448;6.260;2022-09-13T05:32:22;9.70;;;6.00;;
19024;SDS011;9645;51.448;6.260;2022-09-13T05:34:50;9.93;;;6.23;;
19024;SDS011;9645;51.448;6.260;2022-09-13T05:37:17;9.73;;;5.60;;
19024;SDS011;9645;51.448;6.260;2022-09-13T05:39:44;13.00;;;6.90;;
19024;SDS011;9645;51.448;6.260;2022-09-13T05:42:11;10.57;;;6.50;;
19024;SDS011;9645;51.448;6.260;2022-09-13T05:44:38;10.73;;;6.87;;
19024;SDS011;9645;51.448;6.260;2022-09-13T05:47:05;10.67;;;6.40;;
19024;SDS011;9645;51.448;6.260;2022-09-13T05:49:32;12.73;;;6.73;;
19024;SDS011;9645;51.448;6.260;2022-09-13T05:52:01;9.90;;;5.83;;
19024;SDS011;9645;51.448;6.260;2022-09-13T05:54:28;14.10;;;6.97;;
19024;SDS011;9645;51.448;6.260;2022-09-13T05:56:55;8.70;;;5.70;;
19024;SDS011;9645;51.448;6.260;2022-09-13T05:59:22;8.23;;;5.80;;
19024;SDS011;9645;51.448;6.260;2022-09-13T06:01:49;9.80;;;5.67;;
19024;SDS011;9645;51.448;6.260;2022-09-13T06:04:16;9.50;;;6.27;;
19024;SDS011;9645;51.448;6.260;2022-09-13T06:06:43;10.20;;;6.50;;
19024;SDS011;9645;51.448;6.260;2022-09-13T06:09:12;13.97;;;6.60;;
19024;SDS011;9645;51.448;6.260;2022-09-13T06:11:39;11.13;;;6.47;;
19024;SDS011;9645;51.448;6.260;2022-09-13T06:14:06;9.63;;;5.83;;
19024;SDS011;9645;51.448;6.260;2022-09-13T06:16:33;17.27;;;6.80;;
19024;SDS011;9645;51.448;6.260;2022-09-13T06:19:01;14.83;;;6.90;;
19024;SDS011;9645;51.448;6.260;2022-09-13T06:21:28;16.07;;;6.60;;
19024;SDS011;9645;51.448;6.260;2022-09-13T06:23:55;17.30;;;7.13;;
19024;SDS011;9645;51.448;6.260;2022-09-13T06:26:24;8.57;;;6.13;;
19024;SDS011;9645;51.448;6.260;2022-09-13T06:28:53;10.83;;;6.90;;
19024;SDS011;9645;51.448;6.260;2022-09-13T06:31:23;11.60;;;7.03;;
19024;SDS011;9645;51.448;6.260;2022-09-13T06:33:54;11.17;;;6.30;;
19024;SDS011;9645;51.448;6.260;2022-09-13T06:36:22;13.07;;;6.40;;
19024;SDS011;9645;51.448;6.260;2022-09-13T06:38:49;14.43;;;7.00;;
19024;SDS011;9645;51.448;6.260;2022-09-13T06:41:16;9.20;;;5.43;;
19024;SDS011;9645;51.448;6.260;2022-09-13T06:43:46;13.67;;;5.83;;
19024;SDS011;9645;51.448;6.260;2022-09-13T06:46:17;12.50;;;6.77;;
19024;SDS011;9645;51.448;6.260;2022-09-13T06:48:45;9.37;;;5.70;;
19024;SDS011;9645;51.448;6.260;2022-09-13T06:51:13;16.23;;;6.33;;
19024;SDS011;9645;51.448;6.260;2022-09-13T06:53:43;16.10;;;6.93;;
19024;SDS011;9645;51.448;6.260;2022-09-13T06:56:12;14.23;;;7.37;;
19024;SDS011;9645;51.448;6.260;2022-09-13T06:58:40;17.50;;;6.70;;
19024;SDS011;9645;51.448;6.260;2022-09-13T07:01:11;10.30;;;6.50;;
19024;SDS011;9645;51.448;6.260;2022-09-13T07:03:40;27.53;;;7.67;;
19024;SDS011;9645;51.448;6.260;2022-09-13T07:06:09;15.53;;;7.10;;
19024;SDS011;9645;51.448;6.260;2022-09-13T07:08:38;18.97;;;7.87;;
19024;SDS011;9645;51.448;6.260;2022-09-13T07:11:05;15.03;;;7.40;;
19024;SDS011;9645;51.448;6.260;2022-09-13T07:13:33;10.23;;;6.53;;
19024;SDS011;9645;51.448;6.260;2022-09-13T07:16:01;17.90;;;7.87;;
19024;SDS011;9645;51.448;6.260;2022-09-13T07:18:30;11.33;;;7.40;;
19024;SDS011;9645;51.448;6.260;2022-09-13T07:20:57;12.20;;;7.30;;
19024;SDS011;9645;51.448;6.260;2022-09-13T07:23:26;14.00;;;7.10;;
19024;SDS011;9645;51.448;6.260;2022-09-13T07:25:54;15.67;;;7.53;;
19024;SDS011;9645;51.448;6.260;2022-09-13T07:28:26;15.77;;;7.80;;
19024;SDS011;9645;51.448;6.260;2022-09-13T07:30:54;14.90;;;7.60;;
19024;SDS011;9645;51.448;6.260;2022-09-13T07:33:23;8.50;;;6.77;;
19024;SDS011;9645;51.448;6.260;2022-09-13T07:35:55;16.37;;;7.40;;
19024;SDS011;9645;51.448;6.260;2022-09-13T07:38:23;14.37;;;6.97;;
19024;SDS011;9645;51.448;6.260;2022-09-13T07:40:53;14.30;;;7.13;;
19024;SDS011;9645;51.448;6.260;2022-09-13T07:43:22;10.97;;;6.83;;
19024;SDS011;9645;51.448;6.260;2022-09-13T07:45:55;12.10;;;6.60;;
19024;SDS011;9645;51.448;6.260;2022-09-13T07:48:23;9.43;;;6.70;;
19024;SDS011;9645;51.448;6.260;2022-09-13T07:50:59;8.83;;;6.17;;
19024;SDS011;9645;51.448;6.260;2022-09-13T07:53:27;16.07;;;7.07;;
19024;SDS011;9645;51.448;6.260;2022-09-13T07:55:58;11.20;;;7.47;;
19024;SDS011;9645;51.448;6.260;2022-09-13T07:58:26;16.43;;;8.10;;
19024;SDS011;9645;51.448;6.260;2022-09-13T08:00:53;10.00;;;6.70;;
19024;SDS011;9645;51.448;6.260;2022-09-13T08:03:23;12.00;;;8.00;;
19024;SDS011;9645;51.448;6.260;2022-09-13T08:05:49;16.90;;;8.33;;
19024;SDS011;9645;51.448;6.260;2022-09-13T08:08:18;15.63;;;9.07;;
19024;SDS011;9645;51.448;6.260;2022-09-13T08:10:45;35.90;;;11.20;;
19024;SDS011;9645;51.448;6.260;2022-09-13T08:13:12;14.70;;;9.13;;
19024;SDS011;9645;51.448;6.260;2022-09-13T08:15:40;16.00;;;9.40;;
19024;SDS011;9645;51.448;6.260;2022-09-13T08:18:08;13.47;;;9.23;;
19024;SDS011;9645;51.448;6.260;2022-09-13T08:20:35;19.30;;;10.37;;
19024;SDS011;9645;51.448;6.260;2022-09-13T08:23:02;19.20;;;10.53;;
19024;SDS011;9645;51.448;6.260;2022-09-13T08:25:32;22.37;;;10.90;;
19024;SDS011;9645;51.448;6.260;2022-09-13T08:27:59;22.97;;;11.87;;
19024;SDS011;9645;51.448;6.260;2022-09-13T08:30:26;16.60;;;9.20;;
19024;SDS011;9645;51.448;6.260;2022-09-13T08:32:57;18.30;;;10.90;;
19024;SDS011;9645;51.448;6.260;2022-09-13T08:35:25;17.97;;;10.30;;
19024;SDS011;9645;51.448;6.260;2022-09-13T08:37:52;18.33;;;9.30;;
19024;SDS011;9645;51.448;6.260;2022-09-13T08:40:19;14.53;;;10.33;;
19024;SDS011;9645;51.448;6.260;2022-09-13T08:42:50;18.30;;;10.87;;
19024;SDS011;9645;51.448;6.260;2022-09-13T08:45:23;18.23;;;10.63;;
19024;SDS011;9645;51.448;6.260;2022-09-13T08:47:51;19.50;;;10.10;;
19024;SDS011;9645;51.448;6.260;2022-09-13T08:50:22;22.10;;;10.07;;
19024;SDS011;9645;51.448;6.260;2022-09-13T08:53:04;19.80;;;9.10;;
19024;SDS011;9645;51.448;6.260;2022-09-13T08:55:43;27.37;;;9.87;;
19024;SDS011;9645;51.448;6.260;2022-09-13T08:58:27;26.43;;;11.00;;
19024;SDS011;9645;51.448;6.260;2022-09-13T09:01:16;16.50;;;10.90;;
19024;SDS011;9645;51.448;6.260;2022-09-13T09:03:55;17.83;;;10.37;;
19024;SDS011;9645;51.448;6.260;2022-09-13T09:06:32;13.60;;;9.40;;
19024;SDS011;9645;51.448;6.260;2022-09-13T09:09:02;17.17;;;10.93;;
19024;SDS011;9645;51.448;6.260;2022-09-13T09:11:33;17.60;;;10.73;;
19024;SDS011;9645;51.448;6.260;2022-09-13T09:14:07;16.30;;;11.10;;
19024;SDS011;9645;51.448;6.260;2022-09-13T09:16:44;15.80;;;10.20;;
19024;SDS011;9645;51.448;6.260;2022-09-13T09:19:18;13.03;;;9.27;;
19024;SDS011;9645;51.448;6.260;2022-09-13T09:21:48;13.90;;;10.30;;
19024;SDS011;9645;51.448;6.260;2022-09-13T09:24:18;19.23;;;10.13;;
19024;SDS011;9645;51.448;6.260;2022-09-13T09:26:47;21.63;;;10.07;;
19024;SDS011;9645;51.448;6.260;2022-09-13T09:29:17;16.00;;;11.93;;
19024;SDS011;9645;51.448;6.260;2022-09-13T09:31:49;17.60;;;11.47;;
19024;SDS011;9645;51.448;6.260;2022-09-13T09:34:35;18.07;;;8.67;;
19024;SDS011;9645;51.448;6.260;2022-09-13T09:37:14;17.73;;;10.00;;
19024;SDS011;9645;51.448;6.260;2022-09-13T09:39:45;12.27;;;9.67;;
19024;SDS011;9645;51.448;6.260;2022-09-13T09:42:13;12.87;;;9.17;;
19024;SDS011;9645;51.448;6.260;2022-09-13T09:44:45;10.23;;;7.77;;
19024;SDS011;9645;51.448;6.260;2022-09-13T09:47:16;12.03;;;10.07;;
19024;SDS011;9645;51.448;6.260;2022-09-13T09:49:45;11.10;;;8.87;;
19024;SDS011;9645;51.448;6.260;2022-09-13T09:52:34;15.90;;;10.67;;
19024;SDS011;9645;51.448;6.260;2022-09-13T09:55:16;11.97;;;9.60;;
19024;SDS011;9645;51.448;6.260;2022-09-13T09:57:50;14.77;;;10.30;;
19024;SDS011;9645;51.448;6.260;2022-09-13T10:00:20;14.83;;;10.37;;
19024;SDS011;9645;51.448;6.260;2022-09-13T10:02:50;19.70;;;10.43;;
19024;SDS011;9645;51.448;6.260;2022-09-13T10:05:20;14.13;;;10.10;;
19024;SDS011;9645;51.448;6.260;2022-09-13T10:07:52;16.00;;;9.90;;
19024;SDS011;9645;51.448;6.260;2022-09-13T10:10:23;15.77;;;10.20;;
19024;SDS011;9645;51.448;6.260;2022-09-13T10:12:52;12.47;;;8.03;;
19024;SDS011;9645;51.448;6.260;2022-09-13T10:15:23;19.20;;;10.90;;
19024;SDS011;9645;51.448;6.260;2022-09-13T10:18:00;16.97;;;11.33;;
19024;SDS011;9645;51.448;6.260;2022-09-13T10:20:32;17.20;;;12.17;;
19024;SDS011;9645;51.448;6.260;2022-09-13T10:23:19;13.43;;;10.13;;
19024;SDS011;9645;51.448;6.260;2022-09-13T10:26:03;11.00;;;9.63;;
19024;SDS011;9645;51.448;6.260;2022-09-13T10:28:34;14.17;;;11.57;;
19024;SDS011;9645;51.448;6.260;2022-09-13T10:31:10;21.03;;;11.63;;
19024;SDS011;9645;51.448;6.260;2022-09-13T10:33:39;15.37;;;10.70;;
19024;SDS011;9645;51.448;6.260;2022-09-13T10:36:11;14.83;;;10.23;;
19024;SDS011;9645;51.448;6.260;2022-09-13T10:38:41;12.07;;;10.80;;
19024;SDS011;9645;51.448;6.260;2022-09-13T10:41:19;12.73;;;9.47;;
19024;SDS011;9645;51.448;6.260;2022-09-13T10:43:49;11.70;;;10.50;;
19024;SDS011;9645;51.448;6.260;2022-09-13T10:46:24;13.13;;;10.03;;
19024;SDS011;9645;51.448;6.260;2022-09-13T10:48:53;14.00;;;11.20;;
19024;SDS011;9645;51.448;6.260;2022-09-13T10:51:31;20.93;;;9.17;;
19024;SDS011;9645;51.448;6.260;2022-09-13T10:54:09;12.93;;;11.40;;
19024;SDS011;9645;51.448;6.260;2022-09-13T10:56:44;19.00;;;9.53;;
19024;SDS011;9645;51.448;6.260;2022-09-13T10:59:15;13.83;;;10.23;;
19024;SDS011;9645;51.448;6.260;2022-09-13T11:01:47;15.07;;;12.10;;
19024;SDS011;9645;51.448;6.260;2022-09-13T11:04:49;11.33;;;9.13;;
19024;SDS011;9645;51.448;6.260;2022-09-13T11:07:41;17.60;;;12.00;;
19024;SDS011;9645;51.448;6.260;2022-09-13T11:10:23;13.07;;;11.70;;
19024;SDS011;9645;51.448;6.260;2022-09-13T11:12:59;14.23;;;11.80;;
19024;SDS011;9645;51.448;6.260;2022-09-13T11:15:39;17.87;;;12.27;;
19024;SDS011;9645;51.448;6.260;2022-09-13T11:18:27;13.13;;;10.60;;
19024;SDS011;9645;51.448;6.260;2022-09-13T11:21:23;18.67;;;12.30;;
19024;SDS011;9645;51.448;6.260;2022-09-13T11:24:06;15.70;;;9.77;;
19024;SDS011;9645;51.448;6.260;2022-09-13T11:26:54;14.37;;;9.70;;
19024;SDS011;9645;51.448;6.260;2022-09-13T11:29:42;11.60;;;10.17;;
19024;SDS011;9645;51.448;6.260;2022-09-13T11:32:27;14.13;;;9.53;;
19024;SDS011;9645;51.448;6.260;2022-09-13T11:35:11;13.40;;;9.80;;
19024;SDS011;9645;51.448;6.260;2022-09-13T11:37:58;12.20;;;9.10;;
19024;SDS011;9645;51.448;6.260;2022-09-13T11:40:42;12.60;;;8.73;;
19024;SDS011;9645;51.448;6.260;2022-09-13T11:46:13;17.47;;;9.83;;
19024;SDS011;9645;51.448;6.260;2022-09-13T11:48:57;17.00;;;10.63;;
19024;SDS011;9645;51.448;6.260;2022-09-13T11:51:52;17.03;;;11.33;;
19024;SDS011;9645;51.448;6.260;2022-09-13T11:54:31;19.10;;;9.50;;
19024;SDS011;9645;51.448;6.260;2022-09-13T11:57:12;20.23;;;12.30;;
19024;SDS011;9645;51.448;6.260;2022-09-13T11:59:43;17.13;;;10.10;;
19024;SDS011;9645;51.448;6.260;2022-09-13T12:02:17;19.63;;;12.47;;
19024;SDS011;9645;51.448;6.260;2022-09-13T12:04:50;20.47;;;11.50;;
19024;SDS011;9645;51.448;6.260;2022-09-13T12:07:26;29.07;;;12.63;;
19024;SDS011;9645;51.448;6.260;2022-09-13T12:09:57;18.17;;;11.27;;
19024;SDS011;9645;51.448;6.260;2022-09-13T12:12:30;16.63;;;12.40;;
19024;SDS011;9645;51.448;6.260;2022-09-13T12:15:00;23.03;;;12.97;;
19024;SDS011;9645;51.448;6.260;2022-09-13T12:17:34;12.87;;;9.13;;
19024;SDS011;9645;51.448;6.260;2022-09-13T12:20:04;15.20;;;11.13;;
19024;SDS011;9645;51.448;6.260;2022-09-13T12:22:39;17.57;;;10.77;;
19024;SDS011;9645;51.448;6.260;2022-09-13T12:25:11;16.47;;;10.57;;
19024;SDS011;9645;51.448;6.260;2022-09-13T12:27:47;17.27;;;10.83;;
19024;SDS011;9645;51.448;6.260;2022-09-13T12:30:20;14.37;;;9.70;;
19024;SDS011;9645;51.448;6.260;2022-09-13T12:32:48;19.10;;;12.20;;
19024;SDS011;9645;51.448;6.260;2022-09-13T12:35:20;18.73;;;12.27;;
19024;SDS011;9645;51.448;6.260;2022-09-13T12:37:57;18.00;;;11.90;;
19024;SDS011;9645;51.448;6.260;2022-09-13T12:40:52;18.80;;;11.57;;
19024;SDS011;9645;51.448;6.260;2022-09-13T12:43:36;19.53;;;11.97;;
19024;SDS011;9645;51.448;6.260;2022-09-13T12:46:25;15.47;;;11.00;;
19024;SDS011;9645;51.448;6.260;2022-09-13T12:49:12;14.20;;;10.30;;
19024;SDS011;9645;51.448;6.260;2022-09-13T12:51:58;15.67;;;10.00;;
19024;SDS011;9645;51.448;6.260;2022-09-13T12:54:39;13.10;;;10.27;;
19024;SDS011;9645;51.448;6.260;2022-09-13T12:57:24;16.20;;;10.57;;
19024;SDS011;9645;51.448;6.260;2022-09-13T13:00:09;22.57;;;11.97;;
19024;SDS011;9645;51.448;6.260;2022-09-13T13:03:00;18.17;;;11.47;;
19024;SDS011;9645;51.448;6.260;2022-09-13T13:05:36;22.43;;;12.97;;
19024;SDS011;9645;51.448;6.260;2022-09-13T13:08:14;19.63;;;12.37;;
19024;SDS011;9645;51.448;6.260;2022-09-13T13:11:00;20.20;;;12.63;;
19024;SDS011;9645;51.448;6.260;2022-09-13T13:13:33;24.43;;;12.70;;
19024;SDS011;9645;51.448;6.260;2022-09-13T13:16:04;19.97;;;11.70;;
19024;SDS011;9645;51.448;6.260;2022-09-13T13:18:47;17.53;;;12.37;;
19024;SDS011;9645;51.448;6.260;2022-09-13T13:21:28;17.73;;;12.00;;
19024;SDS011;9645;51.448;6.260;2022-09-13T13:27:32;19.97;;;11.97;;
19024;SDS011;9645;51.448;6.260;2022-09-13T13:33:17;16.27;;;11.30;;
19024;SDS011;9645;51.448;6.260;2022-09-13T13:35:46;18.50;;;13.10;;
19024;SDS011;9645;51.448;6.260;2022-09-13T13:38:36;17.60;;;9.60;;
19024;SDS011;9645;51.448;6.260;2022-09-13T13:41:07;19.47;;;12.67;;
19024;SDS011;9645;51.448;6.260;2022-09-13T13:50:27;16.33;;;11.23;;
19024;SDS011;9645;51.448;6.260;2022-09-13T13:52:55;16.27;;;10.37;;
19024;SDS011;9645;51.448;6.260;2022-09-13T13:55:40;21.00;;;10.63;;
19024;SDS011;9645;51.448;6.260;2022-09-13T13:58:24;17.80;;;11.50;;
19024;SDS011;9645;51.448;6.260;2022-09-13T14:00:57;17.17;;;10.20;;
19024;SDS011;9645;51.448;6.260;2022-09-13T14:03:27;18.40;;;10.50;;
19024;SDS011;9645;51.448;6.260;2022-09-13T14:06:07;11.90;;;8.77;;
19024;SDS011;9645;51.448;6.260;2022-09-13T14:08:42;14.03;;;7.67;;
19024;SDS011;9645;51.448;6.260;2022-09-13T14:11:23;16.33;;;8.50;;
19024;SDS011;9645;51.448;6.260;2022-09-13T14:14:07;20.03;;;8.70;;
19024;SDS011;9645;51.448;6.260;2022-09-13T14:16:48;16.93;;;10.57;;
19024;SDS011;9645;51.448;6.260;2022-09-13T14:19:23;20.93;;;12.57;;
19024;SDS011;9645;51.448;6.260;2022-09-13T14:22:06;20.97;;;12.87;;
19024;SDS011;9645;51.448;6.260;2022-09-13T14:24:40;16.90;;;10.23;;
19024;SDS011;9645;51.448;6.260;2022-09-13T14:27:12;13.23;;;9.10;;
19024;SDS011;9645;51.448;6.260;2022-09-13T14:29:45;18.50;;;11.87;;
19024;SDS011;9645;51.448;6.260;2022-09-13T14:32:15;21.53;;;13.13;;
19024;SDS011;9645;51.448;6.260;2022-09-13T14:34:54;16.67;;;10.10;;
19024;SDS011;9645;51.448;6.260;2022-09-13T14:37:28;18.47;;;11.67;;
19024;SDS011;9645;51.448;6.260;2022-09-13T14:39:57;19.60;;;11.97;;
19024;SDS011;9645;51.448;6.260;2022-09-13T14:42:35;15.70;;;10.73;;
19024;SDS011;9645;51.448;6.260;2022-09-13T14:45:04;12.20;;;8.60;;
19024;SDS011;9645;51.448;6.260;2022-09-13T14:47:32;15.00;;;10.97;;
19024;SDS011;9645;51.448;6.260;2022-09-13T14:50:02;16.03;;;10.80;;
19024;SDS011;9645;51.448;6.260;2022-09-13T14:52:35;22.10;;;10.97;;
19024;SDS011;9645;51.448;6.260;2022-09-13T14:55:10;20.27;;;13.37;;
19024;SDS011;9645;51.448;6.260;2022-09-13T14:57:42;18.47;;;11.50;;
19024;SDS011;9645;51.448;6.260;2022-09-13T15:00:15;18.10;;;13.40;;
19024;SDS011;9645;51.448;6.260;2022-09-13T15:02:45;34.77;;;13.43;;
19024;SDS011;9645;51.448;6.260;2022-09-13T15:05:15;16.50;;;11.00;;
19024;SDS011;9645;51.448;6.260;2022-09-13T15:07:45;17.77;;;10.50;;
19024;SDS011;9645;51.448;6.260;2022-09-13T15:10:20;16.33;;;11.57;;
19024;SDS011;9645;51.448;6.260;2022-09-13T15:12:51;18.37;;;9.73;;
19024;SDS011;9645;51.448;6.260;2022-09-13T15:15:34;22.03;;;8.20;;
19024;SDS011;9645;51.448;6.260;2022-09-13T15:18:03;13.50;;;9.50;;
19024;SDS011;9645;51.448;6.260;2022-09-13T15:20:43;14.80;;;10.43;;
19024;SDS011;9645;51.448;6.260;2022-09-13T15:23:14;20.20;;;11.10;;
19024;SDS011;9645;51.448;6.260;2022-09-13T15:25:46;16.30;;;10.57;;
19024;SDS011;9645;51.448;6.260;2022-09-13T15:28:20;23.00;;;10.97;;
19024;SDS011;9645;51.448;6.260;2022-09-13T15:30:49;17.40;;;9.47;;
19024;SDS011;9645;51.448;6.260;2022-09-13T15:33:21;18.60;;;9.57;;
19024;SDS011;9645;51.448;6.260;2022-09-13T15:35:50;12.00;;;8.47;;
19024;SDS011;9645;51.448;6.260;2022-09-13T15:38:23;15.57;;;8.53;;